sensor_id;sensor_type;location;lat;lon;timestamp;P1;durP1;ratioP1;P2;durP2;ratioP2
33413;SDS011;60055;41.884;12.534;2023-09-19T00:00:34;16.45;;;7.03;;
33413;SDS011;60055;41.884;12.534;2023-09-19T00:03:00;17.88;;;6.85;;
33413;SDS011;60055;41.884;12.534;2023-09-19T00:05:29;13.60;;;7.57;;
33413;SDS011;60055;41.884;12.534;2023-09-19T00:10:25;14.52;;;7.40;;
33413;SDS011;60055;41.884;12.534;2023-09-19T00:12:54;14.82;;;6.70;;
33413;SDS011;60055;41.884;12.534;2023-09-19T00:15:20;15.05;;;6.97;;
33413;SDS011;60055;41.884;12.534;2023-09-19T00:17:46;17.80;;;7.00;;
33413;SDS011;60055;41.884;12.534;2023-09-19T00:20:12;22.17;;;7.40;;
33413;SDS011;60055;41.884;12.534;2023-09-19T00:22:40;22.13;;;7.28;;
33413;SDS011;60055;41.884;12.534;2023-09-19T00:25:09;22.75;;;7.05;;
33413;SDS011;60055;41.884;12.534;2023-09-19T00:27:38;19.83;;;7.18;;
33413;SDS011;60055;41.884;12.534;2023-09-19T00:30:07;19.67;;;7.45;;
33413;SDS011;60055;41.884;12.534;2023-09-19T00:32:39;13.95;;;7.07;;
33413;SDS011;60055;41.884;12.534;2023-09-19T00:35:05;19.30;;;7.07;;
33413;SDS011;60055;41.884;12.534;2023-09-19T00:37:31;16.25;;;6.65;;
33413;SDS011;60055;41.884;12.534;2023-09-19T00:39:56;20.45;;;7.18;;
33413;SDS011;60055;41.884;12.534;2023-09-19T00:42:22;13.45;;;6.90;;
33413;SDS011;60055;41.884;12.534;2023-09-19T00:44:47;16.55;;;6.68;;
33413;SDS011;60055;41.884;12.534;2023-09-19T00:47:16;14.13;;;6.68;;
33413;SDS011;60055;41.884;12.534;2023-09-19T00:49:42;14.82;;;6.55;;
33413;SDS011;60055;41.884;12.534;2023-09-19T00:52:08;15.45;;;6.68;;
33413;SDS011;60055;41.884;12.534;2023-09-19T00:54:36;12.48;;;6.45;;
33413;SDS011;60055;41.884;12.534;2023-09-19T00:57:01;14.07;;;6.32;;
33413;SDS011;60055;41.884;12.534;2023-09-19T00:59:28;15.52;;;7.15;;
33413;SDS011;60055;41.884;12.534;2023-09-19T01:01:55;10.80;;;6.30;;
33413;SDS011;60055;41.884;12.534;2023-09-19T01:04:22;13.07;;;6.90;;
33413;SDS011;60055;41.884;12.534;2023-09-19T01:06:48;16.83;;;7.07;;
33413;SDS011;60055;41.884;12.534;2023-09-19T01:09:18;15.60;;;7.30;;
33413;SDS011;60055;41.884;12.534;2023-09-19T01:11:46;15.38;;;7.53;;
33413;SDS011;60055;41.884;12.534;2023-09-19T01:14:20;15.80;;;9.20;;
33413;SDS011;60055;41.884;12.534;2023-09-19T01:17:16;14.88;;;8.75;;
33413;SDS011;60055;41.884;12.534;2023-09-19T01:22:38;19.75;;;9.20;;
33413;SDS011;60055;41.884;12.534;2023-09-19T01:25:13;17.95;;;9.23;;
33413;SDS011;60055;41.884;12.534;2023-09-19T01:30:39;21.42;;;9.60;;
33413;SDS011;60055;41.884;12.534;2023-09-19T01:33:08;20.88;;;10.10;;
33413;SDS011;60055;41.884;12.534;2023-09-19T01:35:37;19.20;;;9.02;;
33413;SDS011;60055;41.884;12.534;2023-09-19T01:38:04;16.85;;;9.80;;
33413;SDS011;60055;41.884;12.534;2023-09-19T01:40:31;21.95;;;10.82;;
33413;SDS011;60055;41.884;12.534;2023-09-19T01:48:40;20.45;;;10.88;;
33413;SDS011;60055;41.884;12.534;2023-09-19T01:51:11;19.60;;;10.15;;
33413;SDS011;60055;41.884;12.534;2023-09-19T01:53:50;20.75;;;9.63;;
33413;SDS011;60055;41.884;12.534;2023-09-19T01:56:31;16.38;;;9.85;;
33413;SDS011;60055;41.884;12.534;2023-09-19T01:59:10;18.77;;;9.80;;
33413;SDS011;60055;41.884;12.534;2023-09-19T02:01:38;16.95;;;10.38;;
33413;SDS011;60055;41.884;12.534;2023-09-19T02:04:05;17.88;;;9.80;;
33413;SDS011;60055;41.884;12.534;2023-09-19T02:06:32;17.90;;;10.65;;
33413;SDS011;60055;41.884;12.534;2023-09-19T02:08:59;18.67;;;10.20;;
33413;SDS011;60055;41.884;12.534;2023-09-19T02:11:24;18.88;;;9.80;;
33413;SDS011;60055;41.884;12.534;2023-09-19T02:13:50;17.27;;;9.68;;
33413;SDS011;60055;41.884;12.534;2023-09-19T02:16:19;21.52;;;9.93;;
33413;SDS011;60055;41.884;12.534;2023-09-19T02:18:47;24.60;;;9.40;;
33413;SDS011;60055;41.884;12.534;2023-09-19T02:21:14;17.38;;;8.10;;
33413;SDS011;60055;41.884;12.534;2023-09-19T02:23:40;18.60;;;9.02;;
33413;SDS011;60055;41.884;12.534;2023-09-19T02:26:06;21.40;;;8.55;;
33413;SDS011;60055;41.884;12.534;2023-09-19T02:28:31;16.08;;;8.25;;
33413;SDS011;60055;41.884;12.534;2023-09-19T02:31:01;20.38;;;8.23;;
33413;SDS011;60055;41.884;12.534;2023-09-19T02:33:27;18.33;;;8.00;;
33413;SDS011;60055;41.884;12.534;2023-09-19T02:35:57;14.40;;;7.65;;
33413;SDS011;60055;41.884;12.534;2023-09-19T02:38:23;21.02;;;8.50;;
33413;SDS011;60055;41.884;12.534;2023-09-19T02:40:50;16.73;;;8.45;;
33413;SDS011;60055;41.884;12.534;2023-09-19T02:43:16;18.17;;;8.70;;
33413;SDS011;60055;41.884;12.534;2023-09-19T02:45:42;16.40;;;8.57;;
33413;SDS011;60055;41.884;12.534;2023-09-19T02:48:07;15.65;;;7.95;;
33413;SDS011;60055;41.884;12.534;2023-09-19T02:50:33;19.48;;;9.00;;
33413;SDS011;60055;41.884;12.534;2023-09-19T02:52:59;19.05;;;8.30;;
33413;SDS011;60055;41.884;12.534;2023-09-19T02:55:24;20.00;;;8.18;;
33413;SDS011;60055;41.884;12.534;2023-09-19T02:57:50;22.48;;;9.35;;
33413;SDS011;60055;41.884;12.534;2023-09-19T03:00:19;14.07;;;9.15;;
33413;SDS011;60055;41.884;12.534;2023-09-19T03:02:55;23.58;;;10.45;;
33413;SDS011;60055;41.884;12.534;2023-09-19T03:05:22;18.13;;;9.68;;
33413;SDS011;60055;41.884;12.534;2023-09-19T03:07:48;18.55;;;10.27;;
33413;SDS011;60055;41.884;12.534;2023-09-19T03:10:15;20.73;;;9.75;;
33413;SDS011;60055;41.884;12.534;2023-09-19T03:12:42;21.70;;;10.50;;
33413;SDS011;60055;41.884;12.534;2023-09-19T03:15:08;20.23;;;10.35;;
33413;SDS011;60055;41.884;12.534;2023-09-19T03:17:33;19.25;;;10.13;;
33413;SDS011;60055;41.884;12.534;2023-09-19T03:20:00;22.30;;;10.45;;
33413;SDS011;60055;41.884;12.534;2023-09-19T03:22:26;21.75;;;10.68;;
33413;SDS011;60055;41.884;12.534;2023-09-19T03:24:52;20.73;;;9.50;;
33413;SDS011;60055;41.884;12.534;2023-09-19T03:27:18;17.67;;;9.60;;
33413;SDS011;60055;41.884;12.534;2023-09-19T03:29:45;19.40;;;10.38;;
33413;SDS011;60055;41.884;12.534;2023-09-19T03:32:11;17.48;;;9.13;;
33413;SDS011;60055;41.884;12.534;2023-09-19T03:34:39;15.70;;;9.10;;
33413;SDS011;60055;41.884;12.534;2023-09-19T03:37:08;17.90;;;9.35;;
33413;SDS011;60055;41.884;12.534;2023-09-19T03:39:34;20.65;;;9.55;;
33413;SDS011;60055;41.884;12.534;2023-09-19T03:41:59;21.45;;;9.55;;
33413;SDS011;60055;41.884;12.534;2023-09-19T03:44:25;17.40;;;9.32;;
33413;SDS011;60055;41.884;12.534;2023-09-19T03:46:51;18.58;;;9.07;;
33413;SDS011;60055;41.884;12.534;2023-09-19T03:49:16;17.35;;;9.20;;
33413;SDS011;60055;41.884;12.534;2023-09-19T03:51:41;15.55;;;8.88;;
33413;SDS011;60055;41.884;12.534;2023-09-19T03:54:07;19.33;;;9.27;;
33413;SDS011;60055;41.884;12.534;2023-09-19T03:56:33;15.80;;;9.23;;
33413;SDS011;60055;41.884;12.534;2023-09-19T03:58:58;17.48;;;9.32;;
33413;SDS011;60055;41.884;12.534;2023-09-19T04:01:24;13.63;;;8.80;;
33413;SDS011;60055;41.884;12.534;2023-09-19T04:03:49;16.02;;;9.10;;
33413;SDS011;60055;41.884;12.534;2023-09-19T04:06:16;25.13;;;9.20;;
33413;SDS011;60055;41.884;12.534;2023-09-19T04:08:42;18.08;;;8.80;;
33413;SDS011;60055;41.884;12.534;2023-09-19T04:11:09;20.45;;;9.57;;
33413;SDS011;60055;41.884;12.534;2023-09-19T04:13:35;18.17;;;9.65;;
33413;SDS011;60055;41.884;12.534;2023-09-19T04:16:01;18.23;;;9.70;;
33413;SDS011;60055;41.884;12.534;2023-09-19T04:18:29;18.63;;;9.18;;
33413;SDS011;60055;41.884;12.534;2023-09-19T04:20:57;18.63;;;9.02;;
33413;SDS011;60055;41.884;12.534;2023-09-19T04:23:23;21.13;;;9.18;;
33413;SDS011;60055;41.884;12.534;2023-09-19T04:25:48;15.95;;;8.38;;
33413;SDS011;60055;41.884;12.534;2023-09-19T04:28:14;17.58;;;7.88;;
33413;SDS011;60055;41.884;12.534;2023-09-19T04:30:40;14.77;;;7.25;;
33413;SDS011;60055;41.884;12.534;2023-09-19T04:33:06;13.27;;;7.60;;
33413;SDS011;60055;41.884;12.534;2023-09-19T04:35:32;17.20;;;8.27;;
33413;SDS011;60055;41.884;12.534;2023-09-19T04:37:57;20.25;;;7.93;;
33413;SDS011;60055;41.884;12.534;2023-09-19T04:40:22;16.27;;;7.65;;
33413;SDS011;60055;41.884;12.534;2023-09-19T04:42:54;17.25;;;7.50;;
33413;SDS011;60055;41.884;12.534;2023-09-19T04:45:22;16.67;;;7.47;;
33413;SDS011;60055;41.884;12.534;2023-09-19T04:47:47;20.35;;;7.10;;
33413;SDS011;60055;41.884;12.534;2023-09-19T04:50:13;18.40;;;8.10;;
33413;SDS011;60055;41.884;12.534;2023-09-19T04:52:41;15.43;;;7.57;;
33413;SDS011;60055;41.884;12.534;2023-09-19T04:55:18;19.55;;;8.85;;
33413;SDS011;60055;41.884;12.534;2023-09-19T04:57:44;15.57;;;8.00;;
33413;SDS011;60055;41.884;12.534;2023-09-19T05:00:14;18.15;;;6.95;;
33413;SDS011;60055;41.884;12.534;2023-09-19T05:02:50;14.48;;;7.13;;
33413;SDS011;60055;41.884;12.534;2023-09-19T05:05:18;15.00;;;6.88;;
33413;SDS011;60055;41.884;12.534;2023-09-19T05:07:44;20.15;;;6.55;;
33413;SDS011;60055;41.884;12.534;2023-09-19T05:10:11;15.45;;;6.70;;
33413;SDS011;60055;41.884;12.534;2023-09-19T05:12:37;13.65;;;6.55;;
33413;SDS011;60055;41.884;12.534;2023-09-19T05:15:06;15.65;;;6.20;;
33413;SDS011;60055;41.884;12.534;2023-09-19T05:17:33;18.40;;;7.00;;
33413;SDS011;60055;41.884;12.534;2023-09-19T05:19:59;23.40;;;7.82;;
33413;SDS011;60055;41.884;12.534;2023-09-19T05:23:04;25.88;;;13.05;;
33413;SDS011;60055;41.884;12.534;2023-09-19T05:25:34;18.80;;;6.82;;
33413;SDS011;60055;41.884;12.534;2023-09-19T05:28:07;24.30;;;7.20;;
33413;SDS011;60055;41.884;12.534;2023-09-19T05:30:34;18.08;;;6.75;;
33413;SDS011;60055;41.884;12.534;2023-09-19T05:33:08;28.35;;;7.30;;
33413;SDS011;60055;41.884;12.534;2023-09-19T05:35:34;18.38;;;7.15;;
33413;SDS011;60055;41.884;12.534;2023-09-19T05:38:07;22.15;;;6.93;;
33413;SDS011;60055;41.884;12.534;2023-09-19T05:40:37;24.08;;;7.13;;
33413;SDS011;60055;41.884;12.534;2023-09-19T05:43:04;13.00;;;6.32;;
33413;SDS011;60055;41.884;12.534;2023-09-19T05:45:30;18.30;;;7.05;;
33413;SDS011;60055;41.884;12.534;2023-09-19T05:48:05;14.25;;;7.38;;
33413;SDS011;60055;41.884;12.534;2023-09-19T05:50:33;21.42;;;7.20;;
33413;SDS011;60055;41.884;12.534;2023-09-19T05:52:59;20.98;;;7.10;;
33413;SDS011;60055;41.884;12.534;2023-09-19T05:55:24;18.45;;;7.35;;
33413;SDS011;60055;41.884;12.534;2023-09-19T05:57:53;20.80;;;7.15;;
33413;SDS011;60055;41.884;12.534;2023-09-19T06:00:19;19.10;;;7.38;;
33413;SDS011;60055;41.884;12.534;2023-09-19T06:02:49;19.70;;;7.47;;
33413;SDS011;60055;41.884;12.534;2023-09-19T06:05:21;26.92;;;7.65;;
33413;SDS011;60055;41.884;12.534;2023-09-19T06:07:48;22.42;;;7.32;;
33413;SDS011;60055;41.884;12.534;2023-09-19T06:10:16;21.88;;;7.85;;
33413;SDS011;60055;41.884;12.534;2023-09-19T06:12:42;18.00;;;7.05;;
33413;SDS011;60055;41.884;12.534;2023-09-19T06:15:09;24.80;;;7.95;;
33413;SDS011;60055;41.884;12.534;2023-09-19T06:17:40;25.95;;;8.23;;
33413;SDS011;60055;41.884;12.534;2023-09-19T06:20:06;18.23;;;7.57;;
33413;SDS011;60055;41.884;12.534;2023-09-19T06:22:38;19.58;;;7.90;;
33413;SDS011;60055;41.884;12.534;2023-09-19T06:25:04;23.67;;;7.47;;
33413;SDS011;60055;41.884;12.534;2023-09-19T06:27:30;19.77;;;7.70;;
33413;SDS011;60055;41.884;12.534;2023-09-19T06:29:55;30.88;;;8.25;;
33413;SDS011;60055;41.884;12.534;2023-09-19T06:32:26;20.92;;;7.85;;
33413;SDS011;60055;41.884;12.534;2023-09-19T06:34:52;19.83;;;7.50;;
33413;SDS011;60055;41.884;12.534;2023-09-19T06:37:20;20.70;;;7.43;;
33413;SDS011;60055;41.884;12.534;2023-09-19T06:39:46;23.98;;;8.25;;
33413;SDS011;60055;41.884;12.534;2023-09-19T06:42:13;19.05;;;7.45;;
33413;SDS011;60055;41.884;12.534;2023-09-19T06:44:38;22.45;;;7.95;;
33413;SDS011;60055;41.884;12.534;2023-09-19T06:47:04;20.25;;;8.02;;
33413;SDS011;60055;41.884;12.534;2023-09-19T06:49:31;26.30;;;8.05;;
33413;SDS011;60055;41.884;12.534;2023-09-19T06:51:56;29.95;;;9.05;;
33413;SDS011;60055;41.884;12.534;2023-09-19T06:54:22;24.33;;;8.10;;
33413;SDS011;60055;41.884;12.534;2023-09-19T06:56:47;26.52;;;8.70;;
33413;SDS011;60055;41.884;12.534;2023-09-19T06:59:13;153.25;;;14.68;;
33413;SDS011;60055;41.884;12.534;2023-09-19T07:01:39;30.23;;;9.13;;
33413;SDS011;60055;41.884;12.534;2023-09-19T07:04:06;32.50;;;9.00;;
33413;SDS011;60055;41.884;12.534;2023-09-19T07:06:31;23.27;;;8.52;;
33413;SDS011;60055;41.884;12.534;2023-09-19T07:08:57;24.48;;;8.30;;
33413;SDS011;60055;41.884;12.534;2023-09-19T07:11:22;26.23;;;8.68;;
33413;SDS011;60055;41.884;12.534;2023-09-19T07:13:48;28.27;;;7.97;;
33413;SDS011;60055;41.884;12.534;2023-09-19T07:16:13;27.80;;;7.65;;
33413;SDS011;60055;41.884;12.534;2023-09-19T07:18:52;22.20;;;7.75;;
33413;SDS011;60055;41.884;12.534;2023-09-19T07:21:18;26.67;;;7.72;;
33413;SDS011;60055;41.884;12.534;2023-09-19T07:23:43;18.02;;;6.93;;
33413;SDS011;60055;41.884;12.534;2023-09-19T07:26:09;125.85;;;13.13;;
33413;SDS011;60055;41.884;12.534;2023-09-19T07:28:34;22.63;;;7.68;;
33413;SDS011;60055;41.884;12.534;2023-09-19T07:31:02;28.98;;;7.22;;
33413;SDS011;60055;41.884;12.534;2023-09-19T07:33:32;21.80;;;6.78;;
33413;SDS011;60055;41.884;12.534;2023-09-19T07:35:57;20.13;;;6.55;;
33413;SDS011;60055;41.884;12.534;2023-09-19T07:38:23;20.30;;;6.43;;
33413;SDS011;60055;41.884;12.534;2023-09-19T07:40:49;20.67;;;6.18;;
33413;SDS011;60055;41.884;12.534;2023-09-19T07:43:15;20.08;;;6.30;;
33413;SDS011;60055;41.884;12.534;2023-09-19T07:45:40;19.85;;;5.70;;
33413;SDS011;60055;41.884;12.534;2023-09-19T07:48:06;14.43;;;5.78;;
33413;SDS011;60055;41.884;12.534;2023-09-19T07:50:39;188.60;;;11.32;;
33413;SDS011;60055;41.884;12.534;2023-09-19T07:53:05;20.88;;;6.00;;
33413;SDS011;60055;41.884;12.534;2023-09-19T07:55:31;18.95;;;5.80;;
33413;SDS011;60055;41.884;12.534;2023-09-19T07:57:58;20.02;;;6.03;;
33413;SDS011;60055;41.884;12.534;2023-09-19T08:00:24;18.08;;;5.65;;
33413;SDS011;60055;41.884;12.534;2023-09-19T08:02:49;24.30;;;6.47;;
33413;SDS011;60055;41.884;12.534;2023-09-19T08:05:17;24.35;;;6.45;;
33413;SDS011;60055;41.884;12.534;2023-09-19T08:07:45;14.85;;;5.90;;
33413;SDS011;60055;41.884;12.534;2023-09-19T08:10:13;22.10;;;5.97;;
33413;SDS011;60055;41.884;12.534;2023-09-19T08:12:41;24.17;;;6.63;;
33413;SDS011;60055;41.884;12.534;2023-09-19T08:15:15;17.45;;;6.10;;
33413;SDS011;60055;41.884;12.534;2023-09-19T08:17:42;20.55;;;5.68;;
33413;SDS011;60055;41.884;12.534;2023-09-19T08:20:08;19.33;;;5.85;;
33413;SDS011;60055;41.884;12.534;2023-09-19T08:22:52;21.27;;;6.05;;
33413;SDS011;60055;41.884;12.534;2023-09-19T08:25:22;27.88;;;6.03;;
33413;SDS011;60055;41.884;12.534;2023-09-19T08:27:50;20.77;;;5.97;;
33413;SDS011;60055;41.884;12.534;2023-09-19T08:30:16;17.70;;;5.70;;
33413;SDS011;60055;41.884;12.534;2023-09-19T08:32:43;18.48;;;5.65;;
33413;SDS011;60055;41.884;12.534;2023-09-19T08:35:11;19.15;;;5.80;;
33413;SDS011;60055;41.884;12.534;2023-09-19T08:37:37;20.88;;;6.00;;
33413;SDS011;60055;41.884;12.534;2023-09-19T08:40:03;22.40;;;5.65;;
33413;SDS011;60055;41.884;12.534;2023-09-19T08:42:28;17.63;;;5.50;;
33413;SDS011;60055;41.884;12.534;2023-09-19T08:44:55;19.60;;;6.10;;
33413;SDS011;60055;41.884;12.534;2023-09-19T08:47:29;19.98;;;5.75;;
33413;SDS011;60055;41.884;12.534;2023-09-19T08:50:19;16.15;;;5.00;;
33413;SDS011;60055;41.884;12.534;2023-09-19T08:52:51;17.73;;;4.90;;
33413;SDS011;60055;41.884;12.534;2023-09-19T08:55:20;15.40;;;4.68;;
33413;SDS011;60055;41.884;12.534;2023-09-19T08:57:52;24.05;;;4.88;;
33413;SDS011;60055;41.884;12.534;2023-09-19T09:00:28;19.95;;;4.43;;
33413;SDS011;60055;41.884;12.534;2023-09-19T09:02:55;17.73;;;4.70;;
33413;SDS011;60055;41.884;12.534;2023-09-19T09:05:22;18.92;;;4.82;;
33413;SDS011;60055;41.884;12.534;2023-09-19T09:07:49;17.25;;;4.40;;
33413;SDS011;60055;41.884;12.534;2023-09-19T09:10:20;17.58;;;4.50;;
33413;SDS011;60055;41.884;12.534;2023-09-19T09:12:51;16.67;;;4.18;;
33413;SDS011;60055;41.884;12.534;2023-09-19T09:15:18;14.13;;;4.30;;
33413;SDS011;60055;41.884;12.534;2023-09-19T09:17:47;15.30;;;4.60;;
33413;SDS011;60055;41.884;12.534;2023-09-19T09:20:17;14.48;;;4.45;;
33413;SDS011;60055;41.884;12.534;2023-09-19T09:22:53;15.90;;;4.72;;
33413;SDS011;60055;41.884;12.534;2023-09-19T09:25:19;10.80;;;4.50;;
33413;SDS011;60055;41.884;12.534;2023-09-19T09:28:01;14.25;;;4.40;;
33413;SDS011;60055;41.884;12.534;2023-09-19T09:30:33;16.38;;;5.00;;
33413;SDS011;60055;41.884;12.534;2023-09-19T09:33:10;25.52;;;4.57;;
33413;SDS011;60055;41.884;12.534;2023-09-19T09:35:37;18.95;;;4.53;;
33413;SDS011;60055;41.884;12.534;2023-09-19T09:38:12;17.90;;;4.75;;
33413;SDS011;60055;41.884;12.534;2023-09-19T09:40:48;16.48;;;3.97;;
33413;SDS011;60055;41.884;12.534;2023-09-19T09:46:13;18.17;;;4.37;;
33413;SDS011;60055;41.884;12.534;2023-09-19T09:48:46;19.55;;;4.25;;
33413;SDS011;60055;41.884;12.534;2023-09-19T09:51:48;15.57;;;4.68;;
33413;SDS011;60055;41.884;12.534;2023-09-19T09:54:25;17.98;;;4.07;;
33413;SDS011;60055;41.884;12.534;2023-09-19T09:57:10;15.95;;;4.30;;
33413;SDS011;60055;41.884;12.534;2023-09-19T09:59:51;20.52;;;4.47;;
33413;SDS011;60055;41.884;12.534;2023-09-19T10:02:26;17.20;;;4.30;;
33413;SDS011;60055;41.884;12.534;2023-09-19T10:05:13;13.93;;;4.03;;
33413;SDS011;60055;41.884;12.534;2023-09-19T10:07:46;13.68;;;3.97;;
33413;SDS011;60055;41.884;12.534;2023-09-19T10:10:34;13.15;;;4.20;;
33413;SDS011;60055;41.884;12.534;2023-09-19T10:13:03;13.90;;;3.60;;
33413;SDS011;60055;41.884;12.534;2023-09-19T10:15:51;13.48;;;3.90;;
33413;SDS011;60055;41.884;12.534;2023-09-19T10:18:26;14.88;;;4.30;;
33413;SDS011;60055;41.884;12.534;2023-09-19T10:20:55;20.77;;;3.95;;
33413;SDS011;60055;41.884;12.534;2023-09-19T10:26:16;14.80;;;4.07;;
33413;SDS011;60055;41.884;12.534;2023-09-19T10:29:15;17.08;;;3.92;;
33413;SDS011;60055;41.884;12.534;2023-09-19T10:31:42;12.10;;;3.75;;
33413;SDS011;60055;41.884;12.534;2023-09-19T10:34:14;14.00;;;3.75;;
33413;SDS011;60055;41.884;12.534;2023-09-19T10:36:42;15.38;;;3.95;;
33413;SDS011;60055;41.884;12.534;2023-09-19T10:39:20;18.85;;;4.07;;
33413;SDS011;60055;41.884;12.534;2023-09-19T10:45:03;13.43;;;4.03;;
33413;SDS011;60055;41.884;12.534;2023-09-19T10:47:38;14.07;;;4.00;;
33413;SDS011;60055;41.884;12.534;2023-09-19T10:50:03;10.63;;;4.30;;
33413;SDS011;60055;41.884;12.534;2023-09-19T10:52:31;16.35;;;4.47;;
33413;SDS011;60055;41.884;12.534;2023-09-19T10:54:59;9.65;;;3.42;;
33413;SDS011;60055;41.884;12.534;2023-09-19T10:57:26;13.55;;;4.07;;
33413;SDS011;60055;41.884;12.534;2023-09-19T11:00:03;11.57;;;3.72;;
33413;SDS011;60055;41.884;12.534;2023-09-19T11:05:43;15.50;;;4.85;;
33413;SDS011;60055;41.884;12.534;2023-09-19T11:08:26;18.75;;;4.80;;
33413;SDS011;60055;41.884;12.534;2023-09-19T11:10:52;15.38;;;4.22;;
33413;SDS011;60055;41.884;12.534;2023-09-19T11:13:27;12.88;;;3.67;;
33413;SDS011;60055;41.884;12.534;2023-09-19T11:24:56;12.43;;;3.42;;
33413;SDS011;60055;41.884;12.534;2023-09-19T11:27:14;16.95;;;3.97;;
33413;SDS011;60055;41.884;12.534;2023-09-19T11:29:42;9.63;;;3.47;;
33413;SDS011;60055;41.884;12.534;2023-09-19T11:32:07;11.30;;;3.20;;
33413;SDS011;60055;41.884;12.534;2023-09-19T11:34:38;13.68;;;3.35;;
33413;SDS011;60055;41.884;12.534;2023-09-19T11:39:39;15.27;;;3.72;;
33413;SDS011;60055;41.884;12.534;2023-09-19T11:48:11;11.80;;;3.30;;
33413;SDS011;60055;41.884;12.534;2023-09-19T11:50:40;12.48;;;3.20;;
33413;SDS011;60055;41.884;12.534;2023-09-19T11:53:10;9.50;;;3.08;;
33413;SDS011;60055;41.884;12.534;2023-09-19T11:55:37;12.27;;;3.25;;
33413;SDS011;60055;41.884;12.534;2023-09-19T11:58:03;22.00;;;5.18;;
33413;SDS011;60055;41.884;12.534;2023-09-19T12:00:31;13.60;;;3.40;;
33413;SDS011;60055;41.884;12.534;2023-09-19T12:02:58;14.35;;;3.67;;
33413;SDS011;60055;41.884;12.534;2023-09-19T12:05:33;13.18;;;3.28;;
33413;SDS011;60055;41.884;12.534;2023-09-19T12:07:58;12.70;;;3.40;;
33413;SDS011;60055;41.884;12.534;2023-09-19T12:10:24;14.50;;;3.60;;
33413;SDS011;60055;41.884;12.534;2023-09-19T12:12:50;11.70;;;3.38;;
33413;SDS011;60055;41.884;12.534;2023-09-19T12:15:27;13.18;;;3.25;;
33413;SDS011;60055;41.884;12.534;2023-09-19T12:17:59;12.27;;;3.20;;
33413;SDS011;60055;41.884;12.534;2023-09-19T12:20:24;11.10;;;3.30;;
33413;SDS011;60055;41.884;12.534;2023-09-19T12:22:50;15.00;;;3.72;;
33413;SDS011;60055;41.884;12.534;2023-09-19T12:25:15;14.52;;;3.70;;
33413;SDS011;60055;41.884;12.534;2023-09-19T12:27:46;10.98;;;3.47;;
33413;SDS011;60055;41.884;12.534;2023-09-19T12:30:18;14.52;;;3.55;;
33413;SDS011;60055;41.884;12.534;2023-09-19T12:32:45;12.27;;;3.65;;
33413;SDS011;60055;41.884;12.534;2023-09-19T12:35:26;12.43;;;3.70;;
33413;SDS011;60055;41.884;12.534;2023-09-19T12:38:01;12.13;;;3.90;;
33413;SDS011;60055;41.884;12.534;2023-09-19T12:40:28;11.50;;;3.63;;
33413;SDS011;60055;41.884;12.534;2023-09-19T12:42:58;15.18;;;3.58;;
33413;SDS011;60055;41.884;12.534;2023-09-19T12:45:24;9.57;;;3.22;;
33413;SDS011;60055;41.884;12.534;2023-09-19T12:53:31;12.52;;;3.55;;
33413;SDS011;60055;41.884;12.534;2023-09-19T12:55:59;13.23;;;3.72;;
33413;SDS011;60055;41.884;12.534;2023-09-19T12:58:30;10.20;;;3.33;;
33413;SDS011;60055;41.884;12.534;2023-09-19T13:00:57;13.57;;;3.63;;
33413;SDS011;60055;41.884;12.534;2023-09-19T13:05:56;13.25;;;3.78;;
33413;SDS011;60055;41.884;12.534;2023-09-19T13:08:26;13.55;;;3.67;;
33413;SDS011;60055;41.884;12.534;2023-09-19T13:11:10;8.68;;;3.33;;
33413;SDS011;60055;41.884;12.534;2023-09-19T13:13:51;15.02;;;3.10;;
33413;SDS011;60055;41.884;12.534;2023-09-19T13:19:37;14.00;;;3.47;;
33413;SDS011;60055;41.884;12.534;2023-09-19T13:25:01;12.15;;;3.20;;
33413;SDS011;60055;41.884;12.534;2023-09-19T13:27:29;15.35;;;3.47;;
33413;SDS011;60055;41.884;12.534;2023-09-19T13:29:54;12.23;;;3.40;;
33413;SDS011;60055;41.884;12.534;2023-09-19T13:32:19;12.10;;;3.20;;
33413;SDS011;60055;41.884;12.534;2023-09-19T13:34:45;16.95;;;3.42;;
33413;SDS011;60055;41.884;12.534;2023-09-19T13:37:10;11.45;;;3.30;;
33413;SDS011;60055;41.884;12.534;2023-09-19T13:39:38;16.67;;;3.72;;
33413;SDS011;60055;41.884;12.534;2023-09-19T13:42:07;16.45;;;3.50;;
33413;SDS011;60055;41.884;12.534;2023-09-19T13:44:37;12.90;;;3.42;;
33413;SDS011;60055;41.884;12.534;2023-09-19T13:47:03;16.95;;;3.53;;
33413;SDS011;60055;41.884;12.534;2023-09-19T13:49:34;13.63;;;3.40;;
33413;SDS011;60055;41.884;12.534;2023-09-19T13:52:00;15.88;;;3.45;;
33413;SDS011;60055;41.884;12.534;2023-09-19T13:54:28;16.65;;;3.75;;
33413;SDS011;60055;41.884;12.534;2023-09-19T13:56:53;15.55;;;3.50;;
33413;SDS011;60055;41.884;12.534;2023-09-19T13:59:19;15.00;;;3.78;;
33413;SDS011;60055;41.884;12.534;2023-09-19T14:01:48;16.30;;;4.00;;
33413;SDS011;60055;41.884;12.534;2023-09-19T14:04:14;12.65;;;3.85;;
33413;SDS011;60055;41.884;12.534;2023-09-19T14:06:41;13.70;;;3.53;;
33413;SDS011;60055;41.884;12.534;2023-09-19T14:09:07;14.77;;;3.28;;
33413;SDS011;60055;41.884;12.534;2023-09-19T14:11:33;17.20;;;3.53;;
33413;SDS011;60055;41.884;12.534;2023-09-19T14:13:59;14.77;;;3.40;;
33413;SDS011;60055;41.884;12.534;2023-09-19T14:16:25;15.52;;;3.50;;
33413;SDS011;60055;41.884;12.534;2023-09-19T14:18:55;18.50;;;3.60;;
33413;SDS011;60055;41.884;12.534;2023-09-19T14:21:20;13.32;;;3.70;;
33413;SDS011;60055;41.884;12.534;2023-09-19T14:23:45;15.73;;;3.92;;
33413;SDS011;60055;41.884;12.534;2023-09-19T14:26:11;16.85;;;3.63;;
33413;SDS011;60055;41.884;12.534;2023-09-19T14:28:37;45.15;;;5.20;;
33413;SDS011;60055;41.884;12.534;2023-09-19T14:31:10;9.02;;;3.00;;
33413;SDS011;60055;41.884;12.534;2023-09-19T14:33:36;14.67;;;3.80;;
33413;SDS011;60055;41.884;12.534;2023-09-19T14:36:06;20.35;;;3.45;;
33413;SDS011;60055;41.884;12.534;2023-09-19T14:38:34;16.00;;;4.05;;
33413;SDS011;60055;41.884;12.534;2023-09-19T14:41:04;18.02;;;5.80;;
33413;SDS011;60055;41.884;12.534;2023-09-19T14:43:31;18.38;;;4.07;;
33413;SDS011;60055;41.884;12.534;2023-09-19T14:46:02;12.57;;;3.50;;
33413;SDS011;60055;41.884;12.534;2023-09-19T14:48:28;15.98;;;3.60;;
33413;SDS011;60055;41.884;12.534;2023-09-19T14:50:54;13.30;;;3.90;;
33413;SDS011;60055;41.884;12.534;2023-09-19T14:53:20;11.55;;;3.42;;
33413;SDS011;60055;41.884;12.534;2023-09-19T14:55:46;14.35;;;4.18;;
33413;SDS011;60055;41.884;12.534;2023-09-19T14:58:16;21.65;;;3.90;;
33413;SDS011;60055;41.884;12.534;2023-09-19T15:00:42;18.25;;;4.13;;
33413;SDS011;60055;41.884;12.534;2023-09-19T15:03:10;17.00;;;3.65;;
33413;SDS011;60055;41.884;12.534;2023-09-19T15:05:36;14.77;;;3.50;;
33413;SDS011;60055;41.884;12.534;2023-09-19T15:08:02;18.25;;;3.83;;
33413;SDS011;60055;41.884;12.534;2023-09-19T15:10:28;16.25;;;3.85;;
33413;SDS011;60055;41.884;12.534;2023-09-19T15:12:53;17.92;;;4.20;;
33413;SDS011;60055;41.884;12.534;2023-09-19T15:15:18;18.17;;;3.88;;
33413;SDS011;60055;41.884;12.534;2023-09-19T15:17:44;18.70;;;4.40;;
33413;SDS011;60055;41.884;12.534;2023-09-19T15:20:09;21.77;;;4.30;;
33413;SDS011;60055;41.884;12.534;2023-09-19T15:22:38;15.80;;;3.75;;
33413;SDS011;60055;41.884;12.534;2023-09-19T15:25:04;22.02;;;4.47;;
33413;SDS011;60055;41.884;12.534;2023-09-19T15:27:31;17.75;;;3.78;;